Time;durP1;ratioP1;P1;durP2;ratioP2;P2;SDS_P1;SDS_P2;PMS_P1;PMS_P2;Temp;Humidity;BMP_temperature;BMP_pressure;BME280_temperature;BME280_humidity;BME280_pressure;Samples;Min_cycle;Max_cycle;Signal;HPM_P1;HPM_P2
2023/03/21 00:00:38;;;;;;;9.25;2.78;;;13.60;49.10;;;;;;4963974;28;20070;-45
2023/03/21 00:03:07;;;;;;;5.50;2.75;;;13.60;49.10;;;;;;4965958;28;20057;-45
2023/03/21 00:05:39;;;;;;;8.05;2.38;;;13.60;49.10;;;;;;4965863;28;20062;-46
2023/03/21 00:08:06;;;;;;;10.90;2.40;;;13.70;49.10;;;;;;4965076;28;20051;-47
2023/03/21 00:10:35;;;;;;;11.05;3.28;;;13.70;48.70;;;;;;4964232;28;20133;-45
2023/03/21 00:13:02;;;;;;;10.55;2.83;;;13.60;49.10;;;;;;4964054;28;20483;-45
2023/03/21 00:15:29;;;;;;;8.52;2.58;;;13.70;49.20;;;;;;4966322;28;20054;-45
2023/03/21 00:18:03;;;;;;;6.47;2.40;;;13.70;49.20;;;;;;4964794;28;20673;-46
2023/03/21 00:20:33;;;;;;;10.88;2.60;;;13.70;49.20;;;;;;4963830;28;20061;-46
2023/03/21 00:23:02;;;;;;;11.32;2.83;;;13.70;49.30;;;;;;4964210;28;20065;-45
2023/03/21 00:25:30;;;;;;;5.60;2.35;;;13.70;49.30;;;;;;4964955;28;20054;-46
2023/03/21 00:27:58;;;;;;;9.10;3.33;;;13.70;49.30;;;;;;4963829;28;20059;-46
2023/03/21 00:30:25;;;;;;;9.93;3.15;;;13.70;49.30;;;;;;4963466;28;20054;-45
2023/03/21 00:32:52;;;;;;;8.85;2.90;;;13.70;49.30;;;;;;4965009;28;20069;-47
2023/03/21 00:35:19;;;;;;;9.13;2.92;;;13.70;49.30;;;;;;4963884;28;20483;-46
2023/03/21 00:37:48;;;;;;;8.50;2.92;;;13.70;49.30;;;;;;4964391;28;20391;-45
2023/03/21 00:40:15;;;;;;;7.90;3.10;;;13.70;49.30;;;;;;4964036;28;20050;-46
2023/03/21 00:42:42;;;;;;;7.90;2.70;;;13.70;49.30;;;;;;4962733;28;20051;-47
2023/03/21 00:45:10;;;;;;;10.30;3.10;;;13.70;49.30;;;;;;4963150;28;20058;-44
2023/03/21 00:47:37;;;;;;;8.55;3.35;;;13.70;49.40;;;;;;4966003;28;20418;-46
2023/03/21 00:50:06;;;;;;;11.98;2.88;;;13.70;49.40;;;;;;4964255;28;20055;-46
2023/03/21 00:52:33;;;;;;;12.43;3.85;;;13.70;49.40;;;;;;4962165;28;20058;-46
2023/03/21 00:55:02;;;;;;;9.07;3.42;;;13.70;49.40;;;;;;4964638;28;20055;-46
2023/03/21 00:57:29;;;;;;;6.68;2.75;;;13.70;49.40;;;;;;4963970;28;20391;-46
2023/03/21 00:59:57;;;;;;;6.00;2.63;;;13.70;49.40;;;;;;4963358;28;20470;-46
2023/03/21 01:02:25;;;;;;;10.95;3.40;;;13.70;49.40;;;;;;4964898;28;20051;-45
2023/03/21 01:04:53;;;;;;;8.15;2.83;;;13.70;49.40;;;;;;4963859;28;20054;-48
2023/03/21 01:07:21;;;;;;;8.05;3.42;;;13.70;49.40;;;;;;4964529;28;20058;-46
2023/03/21 01:09:49;;;;;;;12.63;3.20;;;13.70;49.40;;;;;;4964083;28;20683;-46
2023/03/21 01:12:18;;;;;;;8.48;3.03;;;13.70;49.50;;;;;;4962781;28;20053;-46
2023/03/21 01:14:46;;;;;;;15.90;3.50;;;13.70;49.50;;;;;;4964132;28;20422;-49
2023/03/21 01:17:13;;;;;;;16.17;2.85;;;13.70;49.70;;;;;;4965573;28;20054;-48
2023/03/21 01:19:40;;;;;;;5.90;2.65;;;13.70;49.70;;;;;;4965117;28;20046;-49
2023/03/21 01:22:08;;;;;;;9.25;2.70;;;13.70;49.80;;;;;;4963877;28;20057;-48
2023/03/21 01:24:35;;;;;;;8.98;2.92;;;13.70;49.90;;;;;;4964382;28;20486;-47
2023/03/21 01:27:03;;;;;;;6.40;2.60;;;13.70;49.90;;;;;;4963157;28;20065;-45
2023/03/21 01:29:31;;;;;;;4.50;2.58;;;13.70;49.90;;;;;;4963749;28;20062;-44
2023/03/21 01:31:58;;;;;;;8.10;2.90;;;13.70;50.00;;;;;;4963263;28;20054;-44
2023/03/21 01:34:28;;;;;;;7.78;2.80;;;13.70;50.00;;;;;;4962769;28;20444;-48
2023/03/21 01:36:55;;;;;;;10.50;3.05;;;13.70;50.00;;;;;;4963786;28;20100;-46
2023/03/21 01:39:22;;;;;;;9.10;2.70;;;13.70;50.10;;;;;;4962883;28;20050;-45
2023/03/21 01:41:50;;;;;;;7.80;2.53;;;13.70;50.10;;;;;;4961027;28;20055;-45
2023/03/21 01:44:19;;;;;;;12.32;3.58;;;13.70;50.20;;;;;;4963961;28;20442;-50
2023/03/21 01:46:48;;;;;;;6.88;2.45;;;13.70;50.10;;;;;;4965183;28;20065;-45
2023/03/21 01:49:23;;;;;;;6.47;2.72;;;13.70;50.20;;;;;;4961990;28;20425;-46
2023/03/21 01:51:54;;;;;;;8.07;2.70;;;13.70;50.20;;;;;;4962175;28;20059;-44
2023/03/21 01:54:25;;;;;;;7.40;2.72;;;13.70;50.20;;;;;;4963332;28;20419;-50
2023/03/21 01:56:55;;;;;;;10.68;2.92;;;13.70;50.20;;;;;;4963564;28;20055;-46
2023/03/21 01:59:29;;;;;;;9.45;3.00;;;13.70;50.10;;;;;;4963613;28;20062;-45
2023/03/21 02:02:06;;;;;;;6.35;2.65;;;13.70;50.20;;;;;;4965008;28;20067;-45
2023/03/21 02:04:35;;;;;;;10.43;2.80;;;13.70;50.20;;;;;;4989094;23;21218;-45
2023/03/21 02:07:07;;;;;;;7.90;2.80;;;13.70;50.20;;;;;;4979011;28;20065;-46
2023/03/21 02:09:36;;;;;;;8.82;3.10;;;13.70;50.20;;;;;;4980074;28;20502;-45
2023/03/21 02:12:06;;;;;;;8.70;2.72;;;13.70;50.30;;;;;;4976861;28;20057;-45
2023/03/21 02:14:36;;;;;;;6.50;2.78;;;13.70;50.30;;;;;;4981480;28;20512;-47
2023/03/21 02:17:14;;;;;;;8.45;2.80;;;13.70;50.30;;;;;;4981602;28;20050;-45
2023/03/21 02:20:10;;;;;;;17.00;3.53;;;13.70;50.40;;;;;;4984827;28;20054;-47
2023/03/21 02:23:00;;;;;;;8.32;2.97;;;13.70;50.40;;;;;;4980805;28;20065;-48
2023/03/21 02:26:14;;;;;;;10.95;2.92;;;13.70;50.40;;;;;;4984455;28;20065;-45
2023/03/21 02:28:46;;;;;;;8.20;2.80;;;13.70;50.50;;;;;;4984731;28;20042;-45
2023/03/21 02:31:28;;;;;;;9.75;3.10;;;13.70;50.40;;;;;;4981216;28;20488;-47
2023/03/21 02:34:30;;;;;;;6.75;2.55;;;13.70;50.50;;;;;;4984629;28;20050;-48
2023/03/21 02:37:14;;;;;;;12.65;3.38;;;13.70;50.50;;;;;;4977253;28;20058;-46
2023/03/21 02:39:50;;;;;;;6.83;2.90;;;13.70;50.40;;;;;;4983199;28;20402;-45
2023/03/21 02:42:21;;;;;;;14.90;3.30;;;13.70;50.40;;;;;;4982900;28;20429;-46
2023/03/21 02:44:56;;;;;;;9.38;2.72;;;13.70;50.50;;;;;;4985013;28;20500;-48
2023/03/21 02:47:28;;;;;;;6.53;2.67;;;13.70;50.60;;;;;;4981735;28;20058;-42
2023/03/21 02:50:01;;;;;;;7.68;2.78;;;13.70;50.60;;;;;;4983536;28;20061;-47
2023/03/21 02:52:33;;;;;;;6.85;2.60;;;13.60;50.50;;;;;;4982110;28;20050;-48
2023/03/21 02:55:03;;;;;;;6.53;2.90;;;13.60;50.50;;;;;;4982569;28;20058;-46
2023/03/21 02:57:32;;;;;;;7.80;2.85;;;13.60;50.60;;;;;;4976533;28;20057;-47
2023/03/21 03:00:01;;;;;;;10.80;3.30;;;13.60;50.60;;;;;;4983130;28;20516;-46
2023/03/21 03:02:30;;;;;;;7.65;2.72;;;13.60;50.60;;;;;;4983202;28;20050;-51
2023/03/21 03:04:57;;;;;;;8.57;3.28;;;13.60;50.60;;;;;;4975681;28;20073;-46
2023/03/21 03:07:40;;;;;;;7.57;2.83;;;13.50;50.60;;;;;;4982301;28;20046;-44
2023/03/21 03:10:23;;;;;;;7.10;2.88;;;13.50;50.60;;;;;;4983424;28;20532;-47
2023/03/21 03:13:03;;;;;;;11.27;3.40;;;13.50;50.70;;;;;;4979441;28;20057;-46
2023/03/21 03:15:40;;;;;;;9.90;3.35;;;13.50;50.70;;;;;;4984611;28;20509;-45
2023/03/21 03:18:14;;;;;;;6.57;2.65;;;13.50;50.70;;;;;;4984707;28;20065;-46
2023/03/21 03:20:56;;;;;;;9.20;2.60;;;13.50;50.70;;;;;;4984503;28;20054;-45
2023/03/21 03:23:30;;;;;;;6.80;2.75;;;13.50;50.70;;;;;;4984755;28;20058;-44
2023/03/21 03:26:03;;;;;;;8.15;2.88;;;13.50;50.70;;;;;;4982745;28;20541;-44
2023/03/21 03:28:36;;;;;;;7.63;3.00;;;13.50;50.80;;;;;;4977944;28;20054;-43
2023/03/21 03:31:04;;;;;;;8.82;2.70;;;13.50;50.70;;;;;;4978549;28;20521;-44
2023/03/21 03:33:34;;;;;;;7.65;2.60;;;13.40;50.70;;;;;;4978605;28;20061;-46
2023/03/21 03:36:02;;;;;;;10.02;2.72;;;13.40;50.80;;;;;;4982612;28;20414;-42
2023/03/21 03:38:32;;;;;;;9.18;3.00;;;13.40;50.80;;;;;;4981610;28;20065;-43
2023/03/21 03:41:04;;;;;;;7.70;2.88;;;13.40;50.80;;;;;;4979409;28;20058;-48
2023/03/21 03:43:39;;;;;;;7.15;2.65;;;13.40;50.80;;;;;;4981247;28;20042;-45
2023/03/21 03:46:12;;;;;;;10.05;3.33;;;13.30;50.70;;;;;;4983067;28;20073;-47
2023/03/21 03:48:45;;;;;;;9.50;2.95;;;13.30;50.80;;;;;;4981828;28;20054;-44
2023/03/21 03:51:20;;;;;;;11.25;2.78;;;13.30;50.70;;;;;;4978219;28;20417;-49
2023/03/21 03:53:55;;;;;;;8.60;2.85;;;13.30;50.80;;;;;;4980151;28;20050;-45
2023/03/21 03:56:24;;;;;;;6.10;2.33;;;13.20;50.70;;;;;;4980028;28;20060;-47
2023/03/21 03:58:54;;;;;;;6.97;2.42;;;13.20;50.70;;;;;;4979907;28;20055;-43
2023/03/21 04:01:21;;;;;;;11.55;3.47;;;13.20;50.70;;;;;;4981725;28;20080;-50
2023/03/21 04:03:49;;;;;;;7.32;3.10;;;13.20;50.80;;;;;;4982362;28;20413;-46
2023/03/21 04:09:41;;;;;;;9.15;2.88;;;13.10;50.80;;;;;;4981114;28;20033;-43
2023/03/21 04:12:08;;;;;;;7.38;2.97;;;13.00;50.70;;;;;;4980920;28;20102;-45
2023/03/21 04:14:35;;;;;;;7.68;2.85;;;13.00;50.80;;;;;;4983213;28;20406;-44
2023/03/21 04:17:03;;;;;;;8.70;2.47;;;13.00;50.90;;;;;;4981958;28;20057;-44
2023/03/21 04:19:31;;;;;;;6.00;2.80;;;13.00;51.00;;;;;;4980159;28;20054;-47
2023/03/21 04:21:58;;;;;;;9.57;2.90;;;12.90;51.00;;;;;;4979937;28;20046;-43
2023/03/21 04:24:26;;;;;;;4.25;2.28;;;12.90;51.10;;;;;;4981415;28;21560;-46
2023/03/21 04:26:54;;;;;;;8.50;3.10;;;12.90;51.10;;;;;;4980585;28;20054;-43
2023/03/21 04:29:23;;;;;;;5.90;2.53;;;12.90;51.10;;;;;;4982705;28;20384;-42
2023/03/21 04:31:50;;;;;;;10.45;3.55;;;12.90;51.20;;;;;;4981888;28;20424;-48
2023/03/21 04:34:22;;;;;;;8.10;3.08;;;12.90;51.30;;;;;;4981450;28;20520;-46
2023/03/21 04:36:52;;;;;;;8.95;3.15;;;12.80;51.30;;;;;;4982459;28;20080;-46
2023/03/21 04:39:21;;;;;;;10.70;3.70;;;12.80;51.30;;;;;;4982708;28;20406;-45
2023/03/21 04:41:48;;;;;;;7.13;2.72;;;12.80;51.30;;;;;;4979701;28;20085;-46
2023/03/21 04:44:17;;;;;;;5.97;2.90;;;12.80;51.30;;;;;;4981522;28;20055;-44
2023/03/21 04:46:45;;;;;;;8.27;3.00;;;12.80;51.40;;;;;;4981889;28;20050;-43
2023/03/21 04:49:12;;;;;;;9.27;3.05;;;12.80;51.40;;;;;;4981693;28;20066;-47
2023/03/21 04:51:40;;;;;;;8.15;2.88;;;12.70;51.30;;;;;;4981475;28;20054;-48
2023/03/21 04:54:07;;;;;;;7.20;3.15;;;12.70;51.40;;;;;;4982659;28;20065;-44
2023/03/21 04:56:35;;;;;;;12.70;4.18;;;12.70;51.40;;;;;;4980676;28;20062;-46
2023/03/21 04:59:07;;;;;;;10.48;3.65;;;12.70;51.50;;;;;;4980804;28;20054;-47
2023/03/21 05:01:36;;;;;;;9.93;3.38;;;12.70;51.50;;;;;;4981233;28;20432;-43
2023/03/21 05:04:04;;;;;;;6.53;3.10;;;12.70;51.50;;;;;;4976578;28;20061;-42
2023/03/21 05:06:32;;;;;;;11.93;3.67;;;12.70;51.60;;;;;;4978528;28;20405;-45
2023/03/21 05:09:04;;;;;;;7.90;3.13;;;12.70;51.60;;;;;;4982618;28;20141;-49
2023/03/21 05:11:32;;;;;;;7.00;3.25;;;12.70;51.70;;;;;;4977852;28;20490;-43
2023/03/21 05:14:00;;;;;;;5.95;2.67;;;12.60;51.70;;;;;;4980613;28;20058;-48
2023/03/21 05:16:30;;;;;;;7.13;3.03;;;12.60;51.70;;;;;;4979794;28;20050;-46
2023/03/21 05:19:02;;;;;;;45.95;18.65;;;12.60;51.70;;;;;;4979556;28;20057;-44
2023/03/21 05:21:32;;;;;;;62.70;26.02;;;12.60;51.80;;;;;;4980149;28;20077;-45
2023/03/21 05:24:02;;;;;;;29.52;13.73;;;12.60;52.40;;;;;;4981806;28;20114;-42
2023/03/21 05:26:29;;;;;;;16.58;7.03;;;12.60;51.90;;;;;;4979021;28;20061;-42
2023/03/21 05:28:56;;;;;;;13.35;4.47;;;12.60;52.00;;;;;;4979455;28;20069;-46
2023/03/21 05:31:24;;;;;;;10.50;3.75;;;12.60;52.00;;;;;;4981046;28;20054;-45
2023/03/21 05:33:51;;;;;;;10.27;3.60;;;12.70;52.10;;;;;;4980031;28;20058;-46
2023/03/21 05:36:20;;;;;;;9.15;3.55;;;12.60;52.00;;;;;;4978881;28;20065;-42
2023/03/21 05:38:47;;;;;;;9.65;3.40;;;12.70;52.20;;;;;;4977741;28;20054;-44
2023/03/21 05:41:15;;;;;;;8.90;3.53;;;12.60;52.10;;;;;;4979735;28;20054;-43
2023/03/21 05:43:43;;;;;;;12.45;3.78;;;12.60;52.10;;;;;;4980826;28;20065;-45
2023/03/21 05:46:11;;;;;;;9.05;4.10;;;12.60;52.20;;;;;;4981171;28;20081;-48
2023/03/21 05:48:38;;;;;;;9.95;3.60;;;12.60;52.20;;;;;;4979153;28;20058;-43
2023/03/21 05:51:06;;;;;;;7.28;3.63;;;12.70;52.20;;;;;;4986146;28;20054;-43
2023/03/21 05:53:35;;;;;;;8.27;3.50;;;12.70;52.30;;;;;;4985395;28;20054;-43
2023/03/21 05:56:02;;;;;;;118.22;46.92;;;12.70;52.30;;;;;;4976617;28;20049;-47
2023/03/21 05:58:30;;;;;;;91.13;36.28;;;12.70;52.30;;;;;;4978873;28;20054;-46
2023/03/21 06:00:57;;;;;;;35.67;14.57;;;12.70;52.40;;;;;;4983229;28;20054;-48
2023/03/21 06:03:25;;;;;;;23.98;6.72;;;12.70;52.40;;;;;;4986933;28;20498;-44
2023/03/21 06:05:52;;;;;;;13.07;4.55;;;12.70;52.40;;;;;;4986700;28;20066;-47
2023/03/21 06:08:19;;;;;;;10.35;3.60;;;12.70;52.50;;;;;;4986330;28;20509;-44
2023/03/21 06:10:48;;;;;;;11.48;3.67;;;12.80;52.50;;;;;;4986884;28;20046;-42
2023/03/21 06:13:15;;;;;;;10.55;4.35;;;12.70;52.50;;;;;;4985874;28;20490;-46
2023/03/21 06:15:42;;;;;;;9.23;3.92;;;12.80;52.60;;;;;;4986920;28;20046;-42
2023/03/21 06:18:10;;;;;;;12.05;3.95;;;12.80;52.60;;;;;;4985347;28;20062;-44
2023/03/21 06:20:37;;;;;;;17.35;4.43;;;12.80;52.60;;;;;;4985773;28;20058;-45
2023/03/21 06:23:04;;;;;;;16.50;4.20;;;12.80;52.70;;;;;;4984193;28;20051;-45
2023/03/21 06:25:31;;;;;;;10.63;4.10;;;12.80;52.80;;;;;;4983715;28;20054;-46
2023/03/21 06:28:00;;;;;;;15.25;4.10;;;12.90;53.30;;;;;;4986631;28;20413;-41
2023/03/21 06:30:27;;;;;;;10.63;3.60;;;12.90;52.80;;;;;;4985745;28;20061;-45
2023/03/21 06:32:54;;;;;;;13.52;4.05;;;12.90;52.80;;;;;;4984874;28;20050;-48
2023/03/21 06:35:22;;;;;;;12.13;3.72;;;12.90;52.80;;;;;;4981700;28;20070;-44
2023/03/21 06:37:49;;;;;;;13.50;4.13;;;13.00;52.90;;;;;;4987814;28;20069;-43
2023/03/21 06:40:17;;;;;;;8.07;3.33;;;13.00;52.90;;;;;;4982605;28;20490;-43
2023/03/21 06:46:08;;;;;;;11.13;3.70;;;13.00;53.10;;;;;;4986062;28;20049;-46
2023/03/21 06:48:36;;;;;;;10.50;3.70;;;13.10;52.90;;;;;;4985940;28;20057;-48
2023/03/21 06:51:04;;;;;;;18.20;4.35;;;13.10;52.90;;;;;;4983294;28;20066;-43
2023/03/21 06:53:32;;;;;;;13.20;4.28;;;13.10;52.90;;;;;;4986307;28;20046;-43
2023/03/21 06:55:59;;;;;;;15.18;4.38;;;13.10;53.10;;;;;;4981991;28;20058;-45
2023/03/21 06:58:26;;;;;;;10.07;3.42;;;13.20;53.10;;;;;;4983643;28;20050;-41
2023/03/21 07:00:54;;;;;;;13.40;3.63;;;13.20;53.10;;;;;;4982113;28;20062;-42
2023/03/21 07:03:23;;;;;;;10.32;4.30;;;13.20;53.30;;;;;;4981297;28;20066;-42
2023/03/21 07:05:50;;;;;;;11.25;3.97;;;13.20;53.20;;;;;;4981330;28;20061;-42
2023/03/21 07:08:18;;;;;;;13.70;4.22;;;13.30;53.30;;;;;;4983973;28;20058;-44
2023/03/21 07:10:45;;;;;;;15.73;4.75;;;13.30;53.30;;;;;;4980953;28;20065;-44
2023/03/21 07:13:13;;;;;;;16.88;5.72;;;13.30;53.40;;;;;;4980661;28;20058;-41
2023/03/21 07:15:41;;;;;;;12.75;5.53;;;13.40;53.50;;;;;;4982000;28;20569;-42
2023/03/21 07:18:09;;;;;;;11.30;4.88;;;13.40;53.40;;;;;;4981067;28;20058;-47
2023/03/21 07:20:39;;;;;;;17.83;5.90;;;13.40;53.50;;;;;;4978489;28;20058;-46
2023/03/21 07:23:07;;;;;;;11.15;5.00;;;13.40;53.70;;;;;;4979820;28;20081;-48
2023/03/21 07:25:34;;;;;;;12.25;4.72;;;13.40;53.70;;;;;;4979997;28;20054;-45
2023/03/21 07:28:35;;;;;;;16.83;5.28;;;13.50;53.80;;;;;;4981746;28;20070;-48
2023/03/21 07:31:05;;;;;;;9.90;3.75;;;13.50;54.00;;;;;;4980207;28;20055;-48
2023/03/21 07:33:33;;;;;;;11.65;4.70;;;13.60;53.90;;;;;;4982081;28;20046;-45
2023/03/21 07:36:02;;;;;;;17.95;6.43;;;13.60;53.80;;;;;;4977871;28;20050;-47
2023/03/21 07:38:30;;;;;;;17.33;5.78;;;13.60;53.80;;;;;;4981611;28;20054;-44
2023/03/21 07:41:00;;;;;;;12.27;5.18;;;13.60;53.80;;;;;;4979043;28;20073;-46
2023/03/21 07:43:27;;;;;;;11.18;4.65;;;13.70;53.80;;;;;;4981981;28;20065;-45
2023/03/21 07:45:57;;;;;;;15.60;5.97;;;13.70;53.60;;;;;;4982123;28;20417;-49
2023/03/21 07:48:24;;;;;;;15.38;5.25;;;13.70;53.60;;;;;;4983272;28;20406;-47
2023/03/21 07:50:51;;;;;;;17.60;6.03;;;13.80;53.60;;;;;;4981395;28;20062;-42
2023/03/21 07:53:20;;;;;;;14.52;5.40;;;13.80;53.60;;;;;;4982852;28;20050;-42
2023/03/21 07:55:50;;;;;;;13.15;5.47;;;13.70;53.50;;;;;;4980180;28;20059;-45
2023/03/21 07:58:18;;;;;;;13.80;5.05;;;13.80;53.50;;;;;;4982290;28;20050;-46
2023/03/21 08:00:45;;;;;;;10.32;4.60;;;13.80;53.50;;;;;;4979753;28;20387;-49
2023/03/21 08:03:12;;;;;;;16.17;4.60;;;13.80;53.60;;;;;;4977385;28;20069;-44
2023/03/21 08:05:40;;;;;;;11.30;4.97;;;13.70;53.70;;;;;;4973698;28;20142;-45
2023/03/21 08:08:08;;;;;;;9.15;4.32;;;13.70;53.80;;;;;;4977212;28;20138;-47
2023/03/21 08:10:37;;;;;;;11.05;4.07;;;13.70;53.80;;;;;;4974281;28;20050;-45
2023/03/21 08:13:04;;;;;;;13.45;4.15;;;13.70;54.00;;;;;;4978178;28;20406;-45
2023/03/21 08:15:31;;;;;;;14.38;4.88;;;13.70;54.10;;;;;;4979559;28;20054;-46
2023/03/21 08:17:59;;;;;;;11.45;4.78;;;13.70;54.20;;;;;;4974166;28;20058;-46
2023/03/21 08:20:27;;;;;;;10.32;4.30;;;13.70;54.30;;;;;;4979014;28;20050;-49
2023/03/21 08:22:55;;;;;;;10.25;3.95;;;13.70;54.40;;;;;;4979001;28;20054;-45
2023/03/21 08:25:23;;;;;;;12.27;5.15;;;13.70;54.40;;;;;;4979796;28;20081;-43
2023/03/21 08:27:51;;;;;;;13.65;5.40;;;13.60;54.50;;;;;;4973982;28;20069;-45
2023/03/21 08:30:21;;;;;;;12.43;4.68;;;13.60;54.70;;;;;;4977291;28;20586;-43
2023/03/21 08:32:48;;;;;;;12.90;4.97;;;13.60;54.80;;;;;;4977258;28;20050;-43
2023/03/21 08:35:18;;;;;;;10.48;4.18;;;13.60;54.90;;;;;;4980524;28;20051;-43
2023/03/21 08:37:45;;;;;;;12.55;4.68;;;13.60;55.00;;;;;;4974865;28;20069;-43
2023/03/21 08:40:15;;;;;;;13.25;5.10;;;13.60;55.10;;;;;;4980162;28;20050;-43
2023/03/21 08:42:43;;;;;;;9.77;3.88;;;13.60;55.30;;;;;;4979082;28;20050;-42
2023/03/21 08:45:13;;;;;;;11.00;4.50;;;13.70;55.40;;;;;;4977278;28;20594;-43
2023/03/21 08:47:40;;;;;;;10.20;4.03;;;13.60;55.40;;;;;;4976839;28;20058;-43
2023/03/21 08:50:12;;;;;;;9.65;3.83;;;13.70;55.60;;;;;;4979338;28;21099;-42
2023/03/21 08:52:39;;;;;;;10.95;3.58;;;13.70;55.80;;;;;;4981602;28;20521;-44
2023/03/21 08:55:08;;;;;;;11.55;4.28;;;13.70;55.80;;;;;;4977154;28;20066;-43
2023/03/21 08:57:35;;;;;;;12.48;4.15;;;13.70;55.80;;;;;;4975409;28;20047;-43
2023/03/21 09:00:08;;;;;;;7.75;3.42;;;13.70;55.90;;;;;;4977254;28;20505;-43
2023/03/21 09:02:38;;;;;;;8.52;3.78;;;13.70;55.90;;;;;;4979593;28;20061;-43
2023/03/21 09:05:06;;;;;;;11.48;4.07;;;13.70;56.00;;;;;;4979940;28;20061;-43
2023/03/21 09:07:35;;;;;;;7.45;4.50;;;13.70;56.10;;;;;;4983037;28;20414;-42
2023/03/21 09:10:02;;;;;;;11.13;4.40;;;13.70;56.20;;;;;;4983758;28;20065;-43
2023/03/21 09:12:29;;;;;;;14.27;4.78;;;13.70;56.20;;;;;;4976306;28;20085;-43
2023/03/21 09:14:57;;;;;;;10.18;5.22;;;13.70;56.20;;;;;;4977661;28;20086;-44
2023/03/21 09:17:24;;;;;;;10.05;4.95;;;13.70;56.20;;;;;;4982985;28;20414;-43
2023/03/21 09:19:53;;;;;;;7.95;4.78;;;13.70;56.30;;;;;;4983159;28;20062;-42
2023/03/21 09:22:22;;;;;;;14.43;5.45;;;13.70;56.40;;;;;;4981628;28;20059;-44
2023/03/21 09:24:50;;;;;;;9.68;5.18;;;13.80;56.40;;;;;;4982476;28;20065;-43
2023/03/21 09:27:18;;;;;;;11.63;4.82;;;13.80;56.60;;;;;;4976965;28;20057;-43
2023/03/21 09:29:45;;;;;;;13.00;4.90;;;13.80;56.60;;;;;;4980503;28;20061;-42
2023/03/21 09:32:12;;;;;;;16.63;5.18;;;13.80;56.70;;;;;;4976759;28;20050;-41
2023/03/21 09:34:40;;;;;;;14.48;6.18;;;13.80;57.30;;;;;;4979485;28;20053;-41
2023/03/21 09:37:12;;;;;;;10.25;5.25;;;13.80;56.90;;;;;;4977042;28;20050;-42
2023/03/21 09:39:39;;;;;;;11.32;5.18;;;13.80;57.00;;;;;;4980868;28;20387;-43
2023/03/21 09:42:29;;;;;;;12.43;5.05;;;13.80;57.00;;;;;;4977528;28;20607;-45
2023/03/21 09:45:07;;;;;;;14.85;5.35;;;13.80;57.20;;;;;;4979646;28;20058;-40
2023/03/21 09:47:44;;;;;;;12.95;5.88;;;13.90;57.10;;;;;;4980270;28;20047;-42
2023/03/21 09:50:16;;;;;;;10.13;4.40;;;13.90;57.20;;;;;;4960907;28;20521;-39
2023/03/21 09:52:48;;;;;;;8.93;4.50;;;13.90;57.00;;;;;;4973954;28;20050;-43
2023/03/21 09:55:21;;;;;;;11.82;5.28;;;13.90;57.10;;;;;;4977144;28;20050;-41
2023/03/21 09:57:56;;;;;;;10.63;4.88;;;13.90;57.10;;;;;;4977077;28;20057;-41
2023/03/21 10:00:28;;;;;;;14.60;5.40;;;13.90;57.10;;;;;;4977982;28;20058;-44
2023/03/21 10:03:00;;;;;;;11.73;4.82;;;13.90;57.10;;;;;;4978603;28;20058;-42
2023/03/21 10:05:30;;;;;;;9.32;4.47;;;13.90;57.10;;;;;;4979437;28;20059;-45
2023/03/21 10:08:04;;;;;;;10.50;5.03;;;13.90;57.10;;;;;;4977948;28;20054;-44
2023/03/21 10:10:36;;;;;;;12.63;5.47;;;13.90;57.20;;;;;;4979793;28;20069;-42
2023/03/21 10:13:06;;;;;;;11.52;4.45;;;13.90;57.40;;;;;;4979014;28;20062;-43
2023/03/21 10:15:33;;;;;;;11.15;4.70;;;13.90;57.30;;;;;;4978735;28;20817;-45
2023/03/21 10:18:02;;;;;;;10.88;4.50;;;13.90;57.30;;;;;;4977065;28;20089;-44
2023/03/21 10:20:31;;;;;;;47.33;21.67;;;13.90;57.30;;;;;;4978507;28;20046;-43
2023/03/21 10:23:03;;;;;;;27.25;11.23;;;13.90;57.30;;;;;;4977317;28;20062;-41
2023/03/21 10:25:33;;;;;;;14.32;5.25;;;13.90;57.30;;;;;;4978528;28;20053;-41
2023/03/21 10:28:02;;;;;;;6.60;3.83;;;13.90;57.30;;;;;;4978117;28;20475;-43
2023/03/21 10:30:38;;;;;;;10.52;3.90;;;13.90;57.20;;;;;;4979910;28;20057;-42
2023/03/21 10:33:11;;;;;;;9.52;3.88;;;13.90;57.30;;;;;;4977008;28;20061;-44
2023/03/21 10:35:40;;;;;;;6.80;3.40;;;13.90;57.40;;;;;;4978214;28;20498;-41
2023/03/21 10:38:15;;;;;;;9.95;4.10;;;13.90;57.50;;;;;;4967721;28;20058;-41
2023/03/21 10:40:42;;;;;;;14.43;5.50;;;13.90;57.50;;;;;;4983385;28;20054;-40
2023/03/21 10:43:18;;;;;;;7.60;3.90;;;13.90;57.50;;;;;;4984450;28;20414;-41
2023/03/21 10:45:47;;;;;;;9.02;3.88;;;13.90;57.60;;;;;;4984097;28;20127;-43
2023/03/21 10:48:14;;;;;;;8.98;4.07;;;13.90;57.40;;;;;;4983171;28;20061;-46
2023/03/21 10:50:42;;;;;;;8.57;3.83;;;13.90;57.40;;;;;;4979838;28;20050;-41
2023/03/21 10:53:18;;;;;;;7.20;3.95;;;13.90;57.40;;;;;;4978241;28;20061;-43
2023/03/21 10:55:47;;;;;;;11.05;4.70;;;13.90;57.70;;;;;;4981950;28;20050;-40
2023/03/21 10:58:24;;;;;;;10.50;4.13;;;13.90;57.50;;;;;;4981135;28;20046;-40
2023/03/21 11:00:56;;;;;;;9.70;3.63;;;13.80;57.40;;;;;;4981525;28;20058;-42
2023/03/21 11:03:30;;;;;;;10.48;3.65;;;13.80;57.30;;;;;;4981263;28;20339;-42
2023/03/21 11:06:02;;;;;;;9.90;4.30;;;13.90;57.30;;;;;;4980282;28;20054;-42
2023/03/21 11:08:37;;;;;;;7.75;3.85;;;13.90;57.30;;;;;;4977900;28;20518;-41
2023/03/21 11:11:07;;;;;;;11.63;4.70;;;13.80;57.20;;;;;;4979914;28;20410;-41
2023/03/21 11:13:38;;;;;;;11.75;4.32;;;13.80;57.20;;;;;;4981382;28;20054;-40
2023/03/21 11:16:09;;;;;;;12.75;4.85;;;13.90;57.30;;;;;;4982900;28;20065;-46
2023/03/21 11:18:42;;;;;;;8.77;4.00;;;13.80;57.30;;;;;;4982604;28;20050;-44
2023/03/21 11:21:11;;;;;;;8.65;3.90;;;13.90;57.50;;;;;;4982622;28;20054;-41
2023/03/21 11:23:45;;;;;;;7.68;3.60;;;13.80;57.40;;;;;;4983081;28;20057;-42
2023/03/21 11:26:19;;;;;;;8.77;4.65;;;13.80;57.50;;;;;;4981795;28;20050;-42
2023/03/21 11:28:47;;;;;;;6.10;3.45;;;13.80;57.60;;;;;;4982230;28;20054;-47
2023/03/21 11:31:16;;;;;;;12.45;4.13;;;13.80;57.60;;;;;;4983427;28;20073;-40
2023/03/21 11:33:48;;;;;;;9.70;3.88;;;13.80;57.60;;;;;;4981834;28;20544;-40
2023/03/21 11:36:37;;;;;;;5.90;3.78;;;13.80;57.70;;;;;;4982037;28;20051;-41
2023/03/21 11:39:28;;;;;;;12.77;4.13;;;13.80;57.80;;;;;;4981889;28;20146;-48
2023/03/21 11:41:56;;;;;;;8.07;3.78;;;13.80;57.70;;;;;;4979737;28;20597;-40
2023/03/21 11:44:28;;;;;;;8.88;3.83;;;13.80;57.60;;;;;;4982524;28;20065;-40
2023/03/21 11:46:55;;;;;;;29.20;4.20;;;13.80;57.50;;;;;;4981011;28;20054;-43
2023/03/21 11:49:25;;;;;;;9.80;4.05;;;13.80;57.40;;;;;;4978020;28;20057;-43
2023/03/21 11:52:05;;;;;;;10.38;5.15;;;13.80;57.50;;;;;;4982557;28;20097;-42
2023/03/21 11:54:43;;;;;;;9.10;4.63;;;13.80;57.60;;;;;;4981057;28;20054;-40
2023/03/21 11:57:18;;;;;;;7.63;4.22;;;13.80;57.60;;;;;;4979714;28;20054;-41
2023/03/21 11:59:52;;;;;;;9.93;4.88;;;13.70;57.50;;;;;;4983418;28;20574;-41
2023/03/21 12:02:36;;;;;;;13.02;4.63;;;13.70;57.50;;;;;;4979903;28;20057;-45
2023/03/21 12:05:05;;;;;;;;;;;13.70;57.60;;;;;;4964784;28;20076;-42
2023/03/21 12:07:47;;;;;;;7.93;4.28;;;13.70;57.70;;;;;;4979409;28;19922;-42
2023/03/21 12:10:31;;;;;;;6.72;3.90;;;13.70;57.60;;;;;;4983789;28;20054;-40
2023/03/21 12:13:23;;;;;;;8.15;4.82;;;13.60;57.60;;;;;;4981316;28;20054;-43
2023/03/21 12:16:02;;;;;;;7.43;4.03;;;13.60;57.70;;;;;;4977486;28;20541;-40
2023/03/21 12:18:46;;;;;;;6.97;4.03;;;13.60;57.90;;;;;;4980927;28;20065;-43
2023/03/21 12:21:19;;;;;;;9.00;4.15;;;13.60;58.00;;;;;;4980647;28;20054;-41
2023/03/21 12:24:01;;;;;;;8.47;3.87;;;13.60;58.00;;;;;;4982067;28;20065;-42
2023/03/21 12:26:32;;;;;;;8.35;4.45;;;13.60;58.10;;;;;;4981256;28;20945;-41
2023/03/21 12:29:16;;;;;;;11.57;3.75;;;13.60;58.20;;;;;;4979297;28;20062;-46
2023/03/21 12:31:56;;;;;;;9.50;4.05;;;13.60;58.20;;;;;;4982351;28;20050;-40
2023/03/21 12:34:49;;;;;;;8.88;4.10;;;13.60;58.70;;;;;;4981467;28;20058;-40
2023/03/21 12:37:24;;;;;;;7.47;4.05;;;13.60;58.20;;;;;;4979987;28;20537;-40
2023/03/21 12:39:59;;;;;;;7.38;4.47;;;13.60;58.20;;;;;;4980987;28;20074;-42
2023/03/21 12:42:56;;;;;;;12.27;5.05;;;13.60;58.30;;;;;;4979095;28;20066;-41
2023/03/21 12:45:27;;;;;;;12.45;4.85;;;13.60;58.30;;;;;;4980322;28;20522;-41
2023/03/21 12:48:02;;;;;;;6.90;4.20;;;13.60;58.30;;;;;;4980686;28;20066;-41
2023/03/21 12:50:36;;;;;;;7.53;4.30;;;13.60;58.40;;;;;;4980273;28;20046;-41
2023/03/21 12:53:29;;;;;;;13.18;4.47;;;13.60;58.40;;;;;;4979149;28;20069;-41
2023/03/21 12:56:02;;;;;;;8.70;4.25;;;13.60;58.70;;;;;;4962018;28;20579;-40
2023/03/21 12:58:43;;;;;;;9.57;4.35;;;13.60;58.40;;;;;;4982755;28;20046;-41
2023/03/21 13:01:12;;;;;;;8.80;3.95;;;13.60;58.50;;;;;;4980192;28;20521;-41
2023/03/21 13:03:44;;;;;;;7.65;3.42;;;13.60;58.50;;;;;;4981052;28;20054;-41
2023/03/21 13:06:17;;;;;;;6.70;4.18;;;13.60;58.70;;;;;;4979958;28;20065;-42
2023/03/21 13:08:49;;;;;;;11.82;4.10;;;13.60;58.80;;;;;;4981545;28;20046;-45